createdAt,value
2024-05-09T00:00:43.574Z,11.15
2024-05-09T00:03:12.092Z,11.11
2024-05-09T00:05:43.778Z,10.95
2024-05-09T00:08:33.589Z,10.79
2024-05-09T00:11:01.079Z,10.80
2024-05-09T00:13:28.392Z,10.68
2024-05-09T00:15:55.671Z,10.65
2024-05-09T00:18:23.357Z,10.70
2024-05-09T00:20:50.904Z,10.67
2024-05-09T00:23:18.358Z,10.60
2024-05-09T00:25:46.179Z,10.61
2024-05-09T00:28:13.830Z,10.65
2024-05-09T00:30:41.415Z,10.71
2024-05-09T00:33:10.400Z,10.72
2024-05-09T00:35:39.182Z,10.66
2024-05-09T00:38:06.848Z,10.62
2024-05-09T00:40:39.924Z,10.49
2024-05-09T00:43:10.369Z,10.34
2024-05-09T00:45:37.917Z,10.32
2024-05-09T00:48:07.797Z,10.30
2024-05-09T00:50:39.286Z,10.34
2024-05-09T00:53:07.232Z,10.32
2024-05-09T00:55:38.189Z,10.29
2024-05-09T00:58:06.143Z,10.32
2024-05-09T01:00:39.034Z,10.31
2024-05-09T01:03:10.639Z,10.43
2024-05-09T01:05:40.339Z,10.36
2024-05-09T01:08:09.015Z,10.32
2024-05-09T01:10:37.308Z,10.25
2024-05-09T01:13:05.800Z,10.15
2024-05-09T01:15:34.073Z,10.16
2024-05-09T01:18:09.574Z,10.00
2024-05-09T01:20:42.209Z,9.93
2024-05-09T01:23:12.712Z,9.95
2024-05-09T01:25:41.058Z,9.89
2024-05-09T01:28:08.390Z,9.96
2024-05-09T01:30:37.510Z,9.89
2024-05-09T01:33:10.482Z,9.95
2024-05-09T01:35:41.722Z,9.89
2024-05-09T01:38:12.878Z,9.88
2024-05-09T01:40:40.683Z,9.90
2024-05-09T01:43:09.639Z,9.82
2024-05-09T01:45:38.591Z,9.83
2024-05-09T01:48:06.692Z,9.82
2024-05-09T01:50:39.340Z,9.90
2024-05-09T01:53:14.060Z,9.64
2024-05-09T01:55:42.152Z,9.65
2024-05-09T01:58:09.960Z,9.74
2024-05-09T02:00:41.186Z,9.81
2024-05-09T02:03:13.886Z,9.75
2024-05-09T02:05:44.576Z,9.83
2024-05-09T02:08:16.384Z,9.83
2024-05-09T02:10:44.707Z,9.70
2024-05-09T02:13:12.240Z,9.73
2024-05-09T02:15:39.559Z,9.78
2024-05-09T02:18:08.554Z,9.75
2024-05-09T02:20:38.370Z,9.73
2024-05-09T02:23:06.742Z,9.71
2024-05-09T02:25:34.795Z,9.71
2024-05-09T02:28:02.223Z,9.73
2024-05-09T02:30:38.745Z,9.72
2024-05-09T02:33:11.441Z,9.74
2024-05-09T02:35:40.918Z,9.68
2024-05-09T02:38:09.862Z,9.64
2024-05-09T02:40:39.213Z,9.54
2024-05-09T02:43:09.682Z,9.50
2024-05-09T02:45:38.289Z,9.51
2024-05-09T02:48:06.642Z,9.49
2024-05-09T02:50:38.684Z,9.41
2024-05-09T02:53:08.784Z,9.35
2024-05-09T02:55:37.061Z,9.30
2024-05-09T02:58:04.441Z,9.26
2024-05-09T03:00:39.134Z,9.28
2024-05-09T03:03:10.798Z,9.31
2024-05-09T03:05:40.716Z,9.34
2024-05-09T03:08:08.432Z,9.31
2024-05-09T03:10:38.131Z,9.31
2024-05-09T03:13:12.219Z,9.29
2024-05-09T03:15:40.327Z,9.18
2024-05-09T03:18:08.008Z,9.10
2024-05-09T03:20:36.607Z,9.07
2024-05-09T03:23:05.820Z,9.05
2024-05-09T03:25:34.169Z,8.99
2024-05-09T03:28:01.761Z,8.94
2024-05-09T03:30:36.270Z,9.07
2024-05-09T03:33:13.628Z,9.16
2024-05-09T03:35:42.059Z,9.19
2024-05-09T03:38:09.766Z,9.18
2024-05-09T03:40:37.716Z,9.10
2024-05-09T03:43:05.195Z,9.03
2024-05-09T03:45:32.477Z,9.04
2024-05-09T03:47:59.906Z,9.12
2024-05-09T03:50:33.809Z,9.08
2024-05-09T03:53:03.431Z,9.09
2024-05-09T03:55:31.246Z,8.96
2024-05-09T03:57:58.818Z,8.97
2024-05-09T04:00:34.593Z,9.04
2024-05-09T04:03:08.882Z,9.08
2024-05-09T04:05:40.884Z,9.03
2024-05-09T04:08:09.999Z,8.90
2024-05-09T04:10:37.720Z,8.96
2024-05-09T04:13:05.445Z,8.90
2024-05-09T04:15:33.019Z,9.02
2024-05-09T04:18:01.132Z,8.93
2024-05-09T04:20:37.005Z,8.95
2024-05-09T04:23:08.364Z,9.05
2024-05-09T04:25:36.624Z,9.03
2024-05-09T04:28:04.132Z,9.15
2024-05-09T04:30:37.910Z,9.03
2024-05-09T04:33:10.317Z,8.91
2024-05-09T04:35:39.822Z,9.05
2024-05-09T04:38:07.289Z,9.15
2024-05-09T04:40:36.796Z,9.27
2024-05-09T04:43:06.232Z,9.12
2024-05-09T04:45:33.926Z,9.18
2024-05-09T04:48:02.024Z,9.34
2024-05-09T04:50:36.274Z,9.28
2024-05-09T04:53:08.345Z,9.47
2024-05-09T04:55:37.368Z,9.37
2024-05-09T04:58:05.760Z,9.48
2024-05-09T05:00:37.130Z,9.46
2024-05-09T05:03:13.238Z,9.57
2024-05-09T05:05:43.405Z,9.65
2024-05-09T05:08:19.460Z,9.70
2024-05-09T05:10:48.683Z,9.73
2024-05-09T05:13:18.373Z,9.84
2024-05-09T05:15:47.428Z,9.95
2024-05-09T05:18:15.770Z,9.94
2024-05-09T05:20:43.775Z,10.09
2024-05-09T05:23:13.683Z,10.22
2024-05-09T05:25:42.078Z,10.64
2024-05-09T05:28:09.475Z,10.98
2024-05-09T05:30:38.242Z,11.45
2024-05-09T05:33:07.006Z,12.06
2024-05-09T05:35:35.134Z,12.36
2024-05-09T05:38:06.652Z,12.64
2024-05-09T05:40:37.233Z,12.77
2024-05-09T05:43:26.181Z,12.93
2024-05-09T05:45:53.500Z,12.85
2024-05-09T05:48:21.023Z,12.72
2024-05-09T05:50:48.526Z,12.57
2024-05-09T05:53:15.991Z,12.49
2024-05-09T05:55:43.371Z,12.48
2024-05-09T05:58:14.982Z,12.29
2024-05-09T06:00:43.010Z,12.05
2024-05-09T06:03:13.009Z,11.99
2024-05-09T06:05:43.453Z,12.20
2024-05-09T06:08:11.394Z,12.29
2024-05-09T06:10:40.761Z,12.34
2024-05-09T06:13:13.213Z,12.32
2024-05-09T06:15:41.424Z,12.32
2024-05-09T06:18:11.086Z,12.43
2024-05-09T06:20:40.436Z,12.64
2024-05-09T06:23:09.617Z,13.00
2024-05-09T06:25:37.593Z,13.18
2024-05-09T06:28:05.282Z,13.49
2024-05-09T06:33:03.354Z,14.15
2024-05-09T06:35:31.117Z,14.41
2024-05-09T06:37:58.574Z,14.64
2024-05-09T06:40:34.437Z,14.98
2024-05-09T06:43:05.612Z,15.52
2024-05-09T06:45:32.924Z,15.69
2024-05-09T06:48:00.462Z,15.86
2024-05-09T06:50:35.643Z,16.08
2024-05-09T06:53:05.581Z,16.35
2024-05-09T06:55:32.915Z,16.39
2024-05-09T06:58:00.263Z,16.56
2024-05-09T07:00:35.300Z,16.65
2024-05-09T07:03:16.766Z,17.00
2024-05-09T07:05:47.361Z,17.05
2024-05-09T07:08:16.080Z,17.15
2024-05-09T07:10:43.734Z,17.35
2024-05-09T07:13:15.514Z,17.70
2024-05-09T07:15:43.555Z,17.70
2024-05-09T07:18:17.408Z,17.82
2024-05-09T07:20:46.719Z,18.04
2024-05-09T07:23:14.554Z,18.06
2024-05-09T07:25:42.422Z,18.26
2024-05-09T07:28:17.722Z,18.39
2024-05-09T07:30:45.556Z,18.43
2024-05-09T07:33:23.804Z,18.47
2024-05-09T07:35:52.361Z,18.38
2024-05-09T07:38:19.939Z,18.52
2024-05-09T07:40:47.600Z,18.56
2024-05-09T07:43:16.147Z,18.50
2024-05-09T07:45:51.496Z,18.55
2024-05-09T07:52:37.916Z,17.49
2024-05-09T07:53:47.836Z,18.47
2024-05-09T07:56:20.393Z,18.58
2024-05-09T07:58:51.341Z,18.51
2024-05-09T08:01:19.387Z,18.92
2024-05-09T08:03:47.055Z,18.46
2024-05-09T08:06:14.680Z,19.00
2024-05-09T08:08:42.126Z,19.09
2024-05-09T08:11:09.565Z,19.22
2024-05-09T08:13:36.947Z,19.21
2024-05-09T08:16:04.563Z,19.51
2024-05-09T08:18:32.153Z,19.43
2024-05-09T08:20:59.731Z,19.63
2024-05-09T08:23:27.085Z,19.81
2024-05-09T08:25:54.410Z,19.85
2024-05-09T08:28:22.083Z,19.69
2024-05-09T08:30:49.728Z,19.69
2024-05-09T08:33:17.284Z,19.98
2024-05-09T08:35:44.640Z,20.22
2024-05-09T08:38:12.016Z,20.39
2024-05-09T08:40:39.511Z,20.34
2024-05-09T08:43:12.297Z,20.41
2024-05-09T08:45:44.357Z,20.72
2024-05-09T08:48:14.951Z,20.91
2024-05-09T08:50:44.218Z,20.70
2024-05-09T08:53:12.420Z,20.21
2024-05-09T08:55:43.382Z,19.84
2024-05-09T08:58:16.184Z,19.90
2024-05-09T09:00:45.284Z,20.09
2024-05-09T09:03:16.192Z,20.21
2024-05-09T09:05:55.948Z,19.98
2024-05-09T09:08:23.314Z,20.21
2024-05-09T09:10:53.774Z,20.25
2024-05-09T09:13:21.233Z,20.41
2024-05-09T09:15:49.782Z,20.38
2024-05-09T09:18:18.552Z,20.53
2024-05-09T09:20:46.265Z,20.80
2024-05-09T09:23:13.712Z,20.94
2024-05-09T09:25:41.146Z,19.39
2024-05-09T09:28:09.249Z,20.54
2024-05-09T09:30:41.040Z,20.96
2024-05-09T09:33:12.315Z,20.96
2024-05-09T09:35:41.014Z,20.95
2024-05-09T09:38:10.602Z,20.83
2024-05-09T09:40:43.190Z,20.95
2024-05-09T09:43:20.304Z,20.67
2024-05-09T09:45:51.133Z,20.51
2024-05-09T09:48:20.588Z,19.69
2024-05-09T09:50:48.489Z,20.54
2024-05-09T09:53:16.925Z,18.77
2024-05-09T09:55:44.377Z,20.38
2024-05-09T09:58:14.079Z,20.96
2024-05-09T10:00:42.422Z,21.12
2024-05-09T10:03:10.164Z,21.20
2024-05-09T10:05:38.873Z,21.20
2024-05-09T10:08:08.269Z,21.21
2024-05-09T10:10:36.452Z,20.70
2024-05-09T10:13:08.607Z,20.74
2024-05-09T10:15:46.310Z,20.80
2024-05-09T10:18:14.227Z,20.94
2024-05-09T10:20:45.818Z,20.89
2024-05-09T10:23:33.478Z,21.14
2024-05-09T10:26:02.994Z,20.75
2024-05-09T10:28:38.036Z,21.59
2024-05-09T10:31:16.408Z,20.54
2024-05-09T10:33:52.530Z,21.23
2024-05-09T10:36:25.336Z,21.41
2024-05-09T10:38:53.937Z,21.70
2024-05-09T10:41:22.295Z,21.58
2024-05-09T10:43:50.296Z,21.39
2024-05-09T10:46:20.921Z,21.97
2024-05-09T10:48:48.999Z,22.31
2024-05-09T10:51:17.779Z,22.66
2024-05-09T10:53:46.534Z,22.74
2024-05-09T10:56:15.027Z,20.10
2024-05-09T10:58:42.502Z,19.94
2024-05-09T11:01:10.672Z,19.70
2024-05-09T11:03:39.380Z,20.96
2024-05-09T11:06:07.529Z,21.71
2024-05-09T11:08:35.726Z,22.00
2024-05-09T11:11:07.682Z,22.09
2024-05-09T11:13:37.332Z,22.77
2024-05-09T11:16:06.932Z,23.33
2024-05-09T11:18:38.156Z,23.81
2024-05-09T11:21:13.640Z,23.83
2024-05-09T11:23:41.443Z,23.45
2024-05-09T11:26:10.531Z,23.55
2024-05-09T11:28:37.868Z,23.33
2024-05-09T11:31:10.504Z,23.50
2024-05-09T11:33:47.922Z,20.23
2024-05-09T11:36:15.636Z,22.40
2024-05-09T11:38:43.375Z,23.46
2024-05-09T11:41:17.669Z,23.48
2024-05-09T11:43:45.032Z,23.97
2024-05-09T11:46:12.487Z,23.76
2024-05-09T11:48:40.187Z,23.32
2024-05-09T11:51:07.692Z,23.94
2024-05-09T11:53:35.039Z,23.92
2024-05-09T11:56:02.458Z,24.08
2024-05-09T11:58:34.374Z,23.46
2024-05-09T12:01:02.222Z,22.47
2024-05-09T12:03:30.110Z,22.76
2024-05-09T12:05:57.693Z,23.64
2024-05-09T12:08:25.124Z,22.74
2024-05-09T12:10:52.645Z,23.20
2024-05-09T12:13:20.269Z,22.66
2024-05-09T12:15:47.812Z,23.75
2024-05-09T12:18:15.304Z,21.61
2024-05-09T12:20:43.420Z,23.20
2024-05-09T12:23:10.927Z,23.14
2024-05-09T12:25:40.640Z,22.82
2024-05-09T12:28:08.979Z,23.73
2024-05-09T12:30:41.572Z,23.93
2024-05-09T12:33:11.626Z,21.96
2024-05-09T12:35:39.824Z,22.53
2024-05-09T12:38:07.193Z,22.02
2024-05-09T12:40:37.621Z,23.76
2024-05-09T12:43:10.565Z,24.11
2024-05-09T12:45:39.199Z,22.86
2024-05-09T12:48:12.188Z,21.95
2024-05-09T12:50:41.055Z,19.99
2024-05-09T12:53:08.719Z,19.44
2024-05-09T12:55:44.227Z,21.53
2024-05-09T12:58:21.931Z,23.10
2024-05-09T13:00:49.778Z,21.11
2024-05-09T13:03:17.346Z,21.39
2024-05-09T13:05:45.674Z,21.61
2024-05-09T13:08:13.697Z,19.70
2024-05-09T13:10:41.280Z,21.73
2024-05-09T13:13:10.726Z,22.02
2024-05-09T13:15:38.324Z,19.67
2024-05-09T13:18:06.877Z,19.54
2024-05-09T13:20:35.904Z,19.55
2024-05-09T13:23:05.601Z,20.90
2024-05-09T13:25:37.329Z,20.55
2024-05-09T13:28:05.834Z,18.74
2024-05-09T13:30:39.740Z,18.59
2024-05-09T13:33:13.086Z,18.67
2024-05-09T13:35:47.722Z,19.57
2024-05-09T13:38:19.299Z,20.85
2024-05-09T13:40:47.785Z,19.03
2024-05-09T13:43:15.618Z,19.56
2024-05-09T13:45:43.162Z,20.19
2024-05-09T13:48:10.894Z,18.31
2024-05-09T13:50:39.375Z,18.39
2024-05-09T13:53:08.076Z,19.08
2024-05-09T13:55:38.736Z,18.92
2024-05-09T13:58:06.800Z,19.31
2024-05-09T14:00:44.175Z,19.60
2024-05-09T14:03:16.756Z,19.50
2024-05-09T14:05:45.943Z,19.49
2024-05-09T14:08:15.598Z,19.53
2024-05-09T14:10:45.163Z,19.04
2024-05-09T14:13:13.484Z,18.75
2024-05-09T14:15:41.370Z,18.84
2024-05-09T14:18:12.567Z,19.04
2024-05-09T14:20:41.627Z,19.78
2024-05-09T14:23:09.161Z,18.34
2024-05-09T14:25:38.802Z,18.67
2024-05-09T14:28:09.182Z,19.85
2024-05-09T14:30:38.167Z,18.32
2024-05-09T14:33:07.818Z,17.86
2024-05-09T14:35:37.822Z,18.10
2024-05-09T14:38:05.760Z,19.02
2024-05-09T14:43:03.975Z,20.03
2024-05-09T14:45:32.469Z,20.29
2024-05-09T14:47:59.912Z,20.25
2024-05-09T14:50:34.909Z,20.66
2024-05-09T14:53:06.663Z,19.51
2024-05-09T14:55:36.717Z,19.46
2024-05-09T14:58:09.743Z,17.93
2024-05-09T15:00:46.317Z,18.35
2024-05-09T15:03:21.811Z,18.22
2024-05-09T15:05:50.343Z,19.61
2024-05-09T15:08:18.999Z,17.14
2024-05-09T15:10:46.831Z,17.92
2024-05-09T15:13:16.527Z,17.75
2024-05-09T15:15:44.687Z,18.10
2024-05-09T15:18:12.388Z,17.89
2024-05-09T15:20:40.866Z,18.93
2024-05-09T15:23:08.440Z,18.88
2024-05-09T15:25:36.976Z,18.85
2024-05-09T15:28:07.618Z,19.17
2024-05-09T15:30:35.612Z,18.86
2024-05-09T15:33:04.269Z,18.44
2024-05-09T15:35:32.185Z,18.31
2024-05-09T15:37:59.877Z,17.42
2024-05-09T15:40:35.904Z,17.24
2024-05-09T15:43:07.916Z,18.06
2024-05-09T15:45:36.097Z,18.51
2024-05-09T15:48:04.283Z,17.66
2024-05-09T15:50:37.580Z,17.99
2024-05-09T15:53:09.235Z,17.17
2024-05-09T15:55:37.403Z,16.79
2024-05-09T15:58:05.380Z,17.46
2024-05-09T16:00:38.012Z,17.71
2024-05-09T16:03:13.817Z,19.23
2024-05-09T16:05:43.908Z,19.01
2024-05-09T16:08:12.377Z,17.94
2024-05-09T16:10:43.496Z,17.82
2024-05-09T16:13:12.288Z,16.81
2024-05-09T16:15:39.937Z,16.46
2024-05-09T16:18:07.805Z,17.48
2024-05-09T16:20:39.998Z,16.41
2024-05-09T16:23:10.269Z,16.93
2024-05-09T16:25:37.985Z,16.41
2024-05-09T16:28:09.120Z,16.80
2024-05-09T16:30:39.403Z,15.91
2024-05-09T16:33:07.521Z,16.74
2024-05-09T16:35:35.393Z,16.22
2024-05-09T16:38:03.983Z,16.62
2024-05-09T16:40:37.945Z,17.01
2024-05-09T16:43:09.053Z,17.30
2024-05-09T16:45:37.378Z,17.69
2024-05-09T16:48:05.542Z,17.19
2024-05-09T16:50:35.050Z,16.85
2024-05-09T16:53:07.112Z,16.71
2024-05-09T16:55:35.602Z,16.77
2024-05-09T16:58:04.018Z,17.37
2024-05-09T17:00:40.475Z,16.99
2024-05-09T17:03:13.074Z,16.97
2024-05-09T17:05:41.938Z,17.23
2024-05-09T17:08:09.848Z,16.17
2024-05-09T17:10:37.426Z,17.19
2024-05-09T17:13:06.879Z,17.02
2024-05-09T17:15:36.199Z,16.99
2024-05-09T17:18:04.604Z,16.44
2024-05-09T17:20:35.290Z,16.46
2024-05-09T17:23:06.262Z,16.20
2024-05-09T17:25:34.693Z,15.55
2024-05-09T17:28:07.595Z,16.16
2024-05-09T17:30:38.341Z,15.79
2024-05-09T17:33:09.418Z,17.26
2024-05-09T17:35:38.012Z,17.47
2024-05-09T17:38:06.528Z,16.32
2024-05-09T17:40:36.664Z,17.17
2024-05-09T17:43:07.069Z,17.38
2024-05-09T17:45:40.182Z,16.55
2024-05-09T17:48:10.124Z,15.94
2024-05-09T17:50:38.545Z,15.77
2024-05-09T17:53:06.829Z,16.63
2024-05-09T17:55:34.837Z,15.72
2024-05-09T17:58:02.656Z,15.69
2024-05-09T18:00:37.657Z,15.73
2024-05-09T18:03:10.917Z,16.15
2024-05-09T18:05:38.957Z,16.44
2024-05-09T18:08:07.407Z,16.57
2024-05-09T18:10:38.211Z,16.29
2024-05-09T18:13:11.513Z,16.29
2024-05-09T18:15:39.723Z,16.17
2024-05-09T18:18:07.847Z,16.66
2024-05-09T18:20:42.250Z,15.80
2024-05-09T18:23:15.173Z,15.38
2024-05-09T18:25:43.747Z,16.06
2024-05-09T18:28:11.240Z,16.66
2024-05-09T18:30:39.391Z,16.94
2024-05-09T18:33:08.237Z,16.91
2024-05-09T18:35:36.854Z,16.92
2024-05-09T18:38:05.605Z,16.89
2024-05-09T18:40:36.434Z,16.78
2024-05-09T18:43:08.281Z,16.66
2024-05-09T18:45:37.972Z,16.76
2024-05-09T18:48:06.980Z,16.76
2024-05-09T18:50:38.231Z,16.60
2024-05-09T18:53:08.243Z,16.61
2024-05-09T18:55:35.791Z,16.58
2024-05-09T18:58:04.403Z,16.69
2024-05-09T19:00:36.216Z,16.68
2024-05-09T19:03:12.294Z,16.51
2024-05-09T19:05:42.612Z,16.39
2024-05-09T19:08:11.228Z,16.22
2024-05-09T19:10:39.608Z,16.17
2024-05-09T19:13:11.679Z,16.24
2024-05-09T19:15:41.392Z,16.20
2024-05-09T19:18:09.975Z,16.01
2024-05-09T19:20:38.054Z,15.96
2024-05-09T19:23:07.040Z,16.02
2024-05-09T19:25:35.697Z,16.10
2024-05-09T19:28:03.935Z,16.02
2024-05-09T19:30:38.630Z,16.02
2024-05-09T19:33:10.184Z,15.98
2024-05-09T19:35:38.650Z,15.95
2024-05-09T19:38:06.078Z,15.78
2024-05-09T19:40:34.787Z,15.75
2024-05-09T19:43:03.611Z,15.71
2024-05-09T19:45:33.364Z,15.71
2024-05-09T19:48:01.542Z,15.62
2024-05-09T19:50:37.202Z,15.60
2024-05-09T19:53:10.260Z,15.57
2024-05-09T19:55:38.281Z,15.58
2024-05-09T19:58:08.798Z,15.59
2024-05-09T20:00:39.665Z,15.55
2024-05-09T20:03:10.101Z,15.49
2024-05-09T20:05:38.553Z,15.42
2024-05-09T20:08:07.012Z,15.41
2024-05-09T20:10:35.890Z,15.40
2024-05-09T20:13:06.422Z,15.36
2024-05-09T20:15:35.697Z,15.34
2024-05-09T20:18:04.275Z,15.43
2024-05-09T20:20:38.127Z,15.45
2024-05-09T20:23:09.904Z,15.46
2024-05-09T20:25:37.440Z,15.46
2024-05-09T20:28:06.381Z,15.32
2024-05-09T20:30:35.182Z,15.24
2024-05-09T20:33:05.208Z,15.18
2024-05-09T20:35:34.088Z,15.14
2024-05-09T20:38:02.822Z,15.11
2024-05-09T20:40:34.774Z,15.09
2024-05-09T20:43:06.408Z,15.30
2024-05-09T20:45:34.779Z,15.37
2024-05-09T20:48:02.574Z,15.33
2024-05-09T20:50:37.410Z,15.31
2024-05-09T20:53:15.218Z,15.19
2024-05-09T20:55:44.643Z,15.07
2024-05-09T20:58:12.777Z,14.96
2024-05-09T21:00:43.790Z,15.06
2024-05-09T21:03:14.905Z,14.93
2024-05-09T21:05:43.771Z,15.13
2024-05-09T21:08:11.245Z,14.93
2024-05-09T21:10:38.851Z,14.92
2024-05-09T21:13:07.245Z,14.97
2024-05-09T21:15:35.821Z,14.86
2024-05-09T21:18:04.298Z,14.82
2024-05-09T21:20:34.779Z,14.71
2024-05-09T21:23:02.949Z,14.62
2024-05-09T21:25:31.308Z,14.60
2024-05-09T21:27:58.733Z,14.55
2024-05-09T21:30:33.117Z,14.45
2024-05-09T21:33:10.198Z,14.49
2024-05-09T21:35:38.921Z,14.49
2024-05-09T21:38:07.249Z,14.56
2024-05-09T21:40:36.427Z,14.51
2024-05-09T21:43:05.449Z,14.46
2024-05-09T21:45:33.563Z,14.42
2024-05-09T21:48:03.582Z,14.42
2024-05-09T21:50:37.134Z,14.40
2024-05-09T21:53:08.213Z,14.47
2024-05-09T21:55:35.707Z,14.53
2024-05-09T21:58:03.518Z,14.48
2024-05-09T22:00:36.755Z,14.37
2024-05-09T22:03:10.752Z,14.42
2024-05-09T22:05:42.250Z,14.42
2024-05-09T22:08:10.876Z,14.41
2024-05-09T22:10:38.458Z,14.41
2024-05-09T22:13:06.981Z,14.43
2024-05-09T22:15:39.975Z,14.42
2024-05-09T22:18:09.175Z,14.35
2024-05-09T22:20:39.548Z,14.26
2024-05-09T22:23:08.617Z,14.15
2024-05-09T22:25:36.827Z,14.18
2024-05-09T22:28:05.037Z,14.19
2024-05-09T22:30:37.185Z,14.20
2024-05-09T22:33:09.090Z,14.15
2024-05-09T22:35:37.849Z,14.09
2024-05-09T22:38:05.751Z,14.06
2024-05-09T22:40:42.736Z,14.08
2024-05-09T22:43:19.273Z,14.05
2024-05-09T22:45:47.705Z,14.01
2024-05-09T22:48:15.339Z,13.99
2024-05-09T22:50:42.927Z,13.60
2024-05-09T22:53:10.203Z,13.31
2024-05-09T22:55:37.511Z,13.48
2024-05-09T22:58:05.041Z,13.52
2024-05-09T23:00:33.559Z,13.51
2024-05-09T23:03:02.017Z,13.48
2024-05-09T23:05:29.910Z,13.50
2024-05-09T23:07:57.377Z,13.64
2024-05-09T23:10:31.723Z,13.72
2024-05-09T23:13:03.922Z,13.71
2024-05-09T23:15:31.789Z,13.63
2024-05-09T23:17:59.381Z,13.64
2024-05-09T23:20:35.554Z,13.59
2024-05-09T23:23:06.864Z,13.62
2024-05-09T23:25:34.459Z,13.65
2024-05-09T23:28:02.028Z,13.72
2024-05-09T23:30:37.063Z,13.71
2024-05-09T23:33:08.330Z,13.74
2024-05-09T23:35:36.110Z,13.72
2024-05-09T23:38:03.609Z,13.70
2024-05-09T23:40:38.315Z,13.67
2024-05-09T23:43:09.217Z,13.70
2024-05-09T23:45:37.175Z,13.66
2024-05-09T23:48:05.343Z,13.63
2024-05-09T23:50:36.265Z,13.60
2024-05-09T23:53:07.990Z,13.62
2024-05-09T23:55:36.785Z,13.57
2024-05-09T23:58:04.346Z,13.50
